createdAt,value
2023-10-19T00:00:04.309Z,987.55
2023-10-19T00:01:04.445Z,987.53
2023-10-19T00:02:04.392Z,987.49
2023-10-19T00:03:04.370Z,987.45
2023-10-19T00:04:04.277Z,987.42
2023-10-19T00:05:04.378Z,987.33
2023-10-19T00:06:04.243Z,987.37
2023-10-19T00:07:04.264Z,987.36
2023-10-19T00:08:04.214Z,987.34
2023-10-19T00:09:04.251Z,987.37
2023-10-19T00:10:04.170Z,987.37
2023-10-19T00:11:04.372Z,987.39
2023-10-19T00:12:04.168Z,987.38
2023-10-19T00:13:04.140Z,987.39
2023-10-19T00:14:04.124Z,987.40
2023-10-19T00:15:04.123Z,987.39
2023-10-19T00:16:04.146Z,987.37
2023-10-19T00:17:04.141Z,987.36
2023-10-19T00:18:04.111Z,987.36
2023-10-19T00:19:04.070Z,987.39
2023-10-19T00:20:04.033Z,987.39
2023-10-19T00:21:04.034Z,987.38
2023-10-19T00:22:04.030Z,987.39
2023-10-19T00:23:04.012Z,987.36
2023-10-19T00:24:03.997Z,987.37
2023-10-19T00:25:04.000Z,987.35
2023-10-19T00:26:04.002Z,987.32
2023-10-19T00:27:03.957Z,987.31
2023-10-19T00:28:03.948Z,987.33
2023-10-19T00:29:04.060Z,987.29
2023-10-19T00:30:03.922Z,987.29
2023-10-19T00:31:03.937Z,987.31
2023-10-19T00:32:04.019Z,987.31
2023-10-19T00:33:03.899Z,987.31
2023-10-19T00:34:03.867Z,987.27
2023-10-19T00:35:03.873Z,987.23
2023-10-19T00:36:03.860Z,987.27
2023-10-19T00:37:03.819Z,987.30
2023-10-19T00:38:03.858Z,987.30
2023-10-19T00:39:03.808Z,987.30
2023-10-19T00:40:03.823Z,987.27
2023-10-19T00:41:03.764Z,987.31
2023-10-19T00:42:03.769Z,987.31
2023-10-19T00:43:03.776Z,987.27
2023-10-19T00:44:03.754Z,987.25
2023-10-19T00:45:03.731Z,987.26
2023-10-19T00:46:03.728Z,987.23
2023-10-19T00:47:03.733Z,987.21
2023-10-19T00:48:03.686Z,987.20
2023-10-19T00:49:03.719Z,987.18
2023-10-19T00:50:03.651Z,987.15
2023-10-19T00:51:03.649Z,987.17
2023-10-19T00:52:03.652Z,987.08
2023-10-19T00:53:03.630Z,987.09
2023-10-19T00:54:03.600Z,987.05
2023-10-19T00:55:03.604Z,987.02
2023-10-19T00:56:03.573Z,986.99
2023-10-19T00:57:03.613Z,986.99
2023-10-19T00:58:03.555Z,987.00
2023-10-19T00:59:03.543Z,987.03
2023-10-19T01:00:03.512Z,987.02
2023-10-19T01:01:03.544Z,986.96
2023-10-19T01:02:03.556Z,986.95
2023-10-19T01:03:03.550Z,986.96
2023-10-19T01:04:03.459Z,986.90
2023-10-19T01:05:03.465Z,986.84
2023-10-19T01:06:03.441Z,986.88
2023-10-19T01:07:03.441Z,986.86
2023-10-19T01:08:03.440Z,986.80
2023-10-19T01:09:03.405Z,986.77
2023-10-19T01:10:03.394Z,986.76
2023-10-19T01:11:03.360Z,986.77
2023-10-19T01:12:03.377Z,986.69
2023-10-19T01:13:03.360Z,986.70
2023-10-19T01:14:03.340Z,986.68
2023-10-19T01:15:03.311Z,986.66
2023-10-19T01:16:03.361Z,986.66
2023-10-19T01:17:03.344Z,986.62
2023-10-19T01:18:03.299Z,986.61
2023-10-19T01:19:03.253Z,986.53
2023-10-19T01:20:03.260Z,986.56
2023-10-19T01:21:03.261Z,986.54
2023-10-19T01:22:03.255Z,986.53
2023-10-19T01:23:03.209Z,986.53
2023-10-19T01:24:03.209Z,986.48
2023-10-19T01:25:03.185Z,986.49
2023-10-19T01:26:03.195Z,986.45
2023-10-19T01:27:03.164Z,986.51
2023-10-19T01:28:03.161Z,986.46
2023-10-19T01:29:03.142Z,986.41
2023-10-19T01:30:03.149Z,986.43
2023-10-19T01:31:03.125Z,986.43
2023-10-19T01:32:03.105Z,986.46
2023-10-19T01:33:03.112Z,986.39
2023-10-19T01:34:03.062Z,986.40
2023-10-19T01:35:03.077Z,986.40
2023-10-19T01:36:03.049Z,986.35
2023-10-19T01:37:03.020Z,986.38
2023-10-19T01:38:03.029Z,986.37
2023-10-19T01:39:03.013Z,986.37
2023-10-19T01:40:03.005Z,986.32
2023-10-19T01:41:02.956Z,986.36
2023-10-19T01:42:02.996Z,986.30
2023-10-19T01:43:03.027Z,986.32
2023-10-19T01:44:03.002Z,986.34
2023-10-19T01:45:02.924Z,986.27
2023-10-19T01:46:02.908Z,986.27
2023-10-19T01:47:02.939Z,986.27
2023-10-19T01:48:02.954Z,986.27
2023-10-19T01:49:02.870Z,986.24
2023-10-19T01:50:02.845Z,986.26
2023-10-19T01:51:02.837Z,986.23
2023-10-19T01:52:02.832Z,986.19
2023-10-19T01:53:02.817Z,986.13
2023-10-19T01:54:02.827Z,986.17
2023-10-19T01:55:02.805Z,986.10
2023-10-19T01:56:02.779Z,986.09
2023-10-19T01:57:03.022Z,986.12
2023-10-19T01:58:02.754Z,986.00
2023-10-19T01:59:02.794Z,986.04
2023-10-19T02:00:02.751Z,986.05
2023-10-19T02:01:02.728Z,986.03
2023-10-19T02:02:02.764Z,986.04
2023-10-19T02:03:02.765Z,986.03
2023-10-19T02:04:02.836Z,986.02
2023-10-19T02:05:02.667Z,985.97
2023-10-19T02:06:02.642Z,985.98
2023-10-19T02:07:02.661Z,985.92
2023-10-19T02:08:02.642Z,985.90
2023-10-19T02:09:02.623Z,985.89
2023-10-19T02:10:02.590Z,985.88
2023-10-19T02:11:02.582Z,985.84
2023-10-19T02:12:02.575Z,985.86
2023-10-19T02:13:02.549Z,985.87
2023-10-19T02:14:02.545Z,985.82
2023-10-19T02:15:02.517Z,985.83
2023-10-19T02:16:02.548Z,985.87
2023-10-19T02:17:02.614Z,985.83
2023-10-19T02:18:02.524Z,985.78
2023-10-19T02:19:02.483Z,985.79
2023-10-19T02:20:02.477Z,985.78
2023-10-19T02:21:02.464Z,985.75
2023-10-19T02:22:02.433Z,985.72
2023-10-19T02:23:02.415Z,985.67
2023-10-19T02:24:02.413Z,985.67
2023-10-19T02:25:02.397Z,985.61
2023-10-19T02:26:02.402Z,985.65
2023-10-19T02:27:02.710Z,985.58
2023-10-19T02:28:02.345Z,985.59
2023-10-19T02:29:02.440Z,985.64
2023-10-19T02:30:02.322Z,985.59
2023-10-19T02:31:02.357Z,985.52
2023-10-19T02:32:02.359Z,985.52
2023-10-19T02:33:02.358Z,985.53
2023-10-19T02:34:02.293Z,985.53
2023-10-19T02:35:02.353Z,985.53
2023-10-19T02:36:02.266Z,985.50
2023-10-19T02:37:02.237Z,985.52
2023-10-19T02:38:02.226Z,985.53
2023-10-19T02:39:02.217Z,985.48
2023-10-19T02:40:02.210Z,985.46
2023-10-19T02:41:02.186Z,985.43
2023-10-19T02:42:02.201Z,985.38
2023-10-19T02:43:02.195Z,985.33
2023-10-19T02:44:02.266Z,985.32
2023-10-19T02:45:02.163Z,985.32
2023-10-19T02:46:02.130Z,985.33
2023-10-19T02:47:02.268Z,985.29
2023-10-19T02:48:02.207Z,985.29
2023-10-19T02:49:02.153Z,985.28
2023-10-19T02:50:02.132Z,985.28
2023-10-19T02:51:02.853Z,985.27
2023-10-19T02:52:02.155Z,985.30
2023-10-19T02:53:02.084Z,985.25
2023-10-19T02:54:02.083Z,985.30
2023-10-19T02:55:01.997Z,985.25
2023-10-19T02:56:02.248Z,985.26
2023-10-19T02:57:02.146Z,985.22
2023-10-19T02:58:01.987Z,985.22
2023-10-19T02:59:02.185Z,985.22
2023-10-19T03:00:01.957Z,985.19
2023-10-19T03:01:02.062Z,985.20
2023-10-19T03:02:02.249Z,985.23
2023-10-19T03:03:01.987Z,985.17
2023-10-19T03:04:01.943Z,985.18
2023-10-19T03:05:01.924Z,985.17
2023-10-19T03:06:01.870Z,985.16
2023-10-19T03:07:01.845Z,985.23
2023-10-19T03:08:01.862Z,985.21
2023-10-19T03:09:01.832Z,985.26
2023-10-19T03:10:01.835Z,985.25
2023-10-19T03:11:01.819Z,985.22
2023-10-19T03:12:01.813Z,985.22
2023-10-19T03:13:01.777Z,985.17
2023-10-19T03:14:01.782Z,985.26
2023-10-19T03:15:01.817Z,985.19
2023-10-19T03:16:01.744Z,985.18
2023-10-19T03:17:02.168Z,985.18
2023-10-19T03:18:01.720Z,985.14
2023-10-19T03:19:01.714Z,985.08
2023-10-19T03:20:01.776Z,985.12
2023-10-19T03:21:01.684Z,985.11
2023-10-19T03:22:01.742Z,985.08
2023-10-19T03:23:01.698Z,985.05
2023-10-19T03:24:01.633Z,985.13
2023-10-19T03:25:01.765Z,985.09
2023-10-19T03:26:01.629Z,985.09
2023-10-19T03:27:01.581Z,985.04
2023-10-19T03:28:01.574Z,985.05
2023-10-19T03:29:01.579Z,985.01
2023-10-19T03:30:01.543Z,985.03
2023-10-19T03:31:01.573Z,984.98
2023-10-19T03:32:01.610Z,984.98
2023-10-19T03:33:01.559Z,984.93
2023-10-19T03:34:01.509Z,984.90
2023-10-19T03:35:01.632Z,984.87
2023-10-19T03:36:01.486Z,984.84
2023-10-19T03:37:01.450Z,984.82
2023-10-19T03:38:01.430Z,984.84
2023-10-19T03:39:01.396Z,984.83
2023-10-19T03:40:01.602Z,984.80
2023-10-19T03:41:01.387Z,984.83
2023-10-19T03:42:01.431Z,984.79
2023-10-19T03:43:01.355Z,984.86
2023-10-19T03:44:01.355Z,984.84
2023-10-19T03:45:01.333Z,984.81
2023-10-19T03:46:01.338Z,984.72
2023-10-19T03:47:01.531Z,984.73
2023-10-19T03:48:01.304Z,984.77
2023-10-19T03:49:01.285Z,984.72
2023-10-19T03:50:01.281Z,984.72
2023-10-19T03:51:01.299Z,984.68
2023-10-19T03:52:01.236Z,984.64
2023-10-19T03:53:01.315Z,984.68
2023-10-19T03:54:01.219Z,984.73
2023-10-19T03:55:01.202Z,984.64
2023-10-19T03:56:01.230Z,984.63
2023-10-19T03:57:01.167Z,984.61
2023-10-19T03:58:01.235Z,984.59
2023-10-19T03:59:01.154Z,984.57
2023-10-19T04:00:01.184Z,984.55
2023-10-19T04:01:01.135Z,984.53
2023-10-19T04:02:01.192Z,984.49
2023-10-19T04:03:01.216Z,984.47
2023-10-19T04:04:02.022Z,984.44
2023-10-19T04:05:01.109Z,984.49
2023-10-19T04:06:01.071Z,984.48
2023-10-19T04:07:01.055Z,984.40
2023-10-19T04:08:01.097Z,984.28
2023-10-19T04:09:01.140Z,984.24
2023-10-19T04:10:01.194Z,984.21
2023-10-19T04:11:01.057Z,984.24
2023-10-19T04:12:01.086Z,984.21
2023-10-19T04:13:00.983Z,984.24
2023-10-19T04:14:00.984Z,984.19
2023-10-19T04:15:00.948Z,984.22
2023-10-19T04:16:00.974Z,984.25
2023-10-19T04:17:01.009Z,984.26
2023-10-19T04:18:00.962Z,984.22
2023-10-19T04:19:00.935Z,984.19
2023-10-19T04:20:00.892Z,984.26
2023-10-19T04:21:00.870Z,984.31
2023-10-19T04:22:00.887Z,984.25
2023-10-19T04:23:00.875Z,984.27
2023-10-19T04:24:00.933Z,984.27
2023-10-19T04:25:00.814Z,984.23
2023-10-19T04:26:00.830Z,984.26
2023-10-19T04:27:00.791Z,984.22
2023-10-19T04:28:00.844Z,984.18
2023-10-19T04:29:00.811Z,984.13
2023-10-19T04:30:00.755Z,984.10
2023-10-19T04:31:00.890Z,984.07
2023-10-19T04:32:00.791Z,984.08
2023-10-19T04:33:00.737Z,984.09
2023-10-19T04:34:00.707Z,983.99
2023-10-19T04:35:00.736Z,984.08
2023-10-19T04:36:00.833Z,984.12
2023-10-19T04:37:00.658Z,984.04
2023-10-19T04:38:00.721Z,984.00
2023-10-19T04:39:00.627Z,984.01
2023-10-19T04:40:00.654Z,984.03
2023-10-19T04:41:00.662Z,983.94
2023-10-19T04:42:00.613Z,983.87
2023-10-19T04:43:00.694Z,983.83
2023-10-19T04:44:00.598Z,983.82
2023-10-19T04:45:00.574Z,983.81
2023-10-19T04:46:00.588Z,983.76
2023-10-19T04:47:00.608Z,983.78
2023-10-19T04:48:00.608Z,983.80
2023-10-19T04:49:00.500Z,983.75
2023-10-19T04:50:00.630Z,983.76
2023-10-19T04:51:00.483Z,983.77
2023-10-19T04:52:00.453Z,983.71
2023-10-19T04:53:00.519Z,983.68
2023-10-19T04:54:00.444Z,983.65
2023-10-19T04:55:00.432Z,983.70
2023-10-19T04:56:00.435Z,983.67
2023-10-19T04:57:00.394Z,983.65
2023-10-19T04:58:00.384Z,983.61
2023-10-19T04:59:00.397Z,983.65
2023-10-19T05:00:00.403Z,983.63
2023-10-19T05:01:00.357Z,983.60
2023-10-19T05:02:01.059Z,983.61
2023-10-19T05:03:00.382Z,983.62
2023-10-19T05:04:00.349Z,983.63
2023-10-19T05:05:00.423Z,983.63
2023-10-19T05:06:00.334Z,983.65
2023-10-19T05:07:00.254Z,983.59
2023-10-19T05:08:00.304Z,983.51
2023-10-19T05:09:00.232Z,983.57
2023-10-19T05:10:00.274Z,983.57
2023-10-19T05:11:00.323Z,983.54
2023-10-19T05:12:00.227Z,983.51
2023-10-19T05:13:00.206Z,983.52
2023-10-19T05:14:00.256Z,983.59
2023-10-19T05:15:00.187Z,983.63
2023-10-19T05:16:00.383Z,983.60
2023-10-19T05:17:00.191Z,983.60
2023-10-19T05:18:00.288Z,983.59
2023-10-19T05:19:00.091Z,983.56
2023-10-19T05:20:00.141Z,983.52
2023-10-19T05:21:00.098Z,983.54
2023-10-19T05:22:00.056Z,983.49
2023-10-19T05:23:00.080Z,983.54
2023-10-19T05:24:00.042Z,983.51
2023-10-19T05:25:00.007Z,983.47
2023-10-19T05:26:00.084Z,983.41
2023-10-19T05:27:00.002Z,983.47
2023-10-19T05:27:59.991Z,983.46
2023-10-19T05:28:59.985Z,983.48
2023-10-19T05:29:59.965Z,983.45
2023-10-19T05:30:59.934Z,983.44
2023-10-19T05:32:00.059Z,983.45
2023-10-19T05:32:59.933Z,983.47
2023-10-19T05:33:59.899Z,983.50
2023-10-19T05:35:01.211Z,983.44
2023-10-19T05:35:59.892Z,983.46
2023-10-19T05:37:00.010Z,983.42
2023-10-19T05:37:59.899Z,983.37
2023-10-19T05:38:59.836Z,983.45
2023-10-19T05:39:59.850Z,983.41
2023-10-19T05:40:59.855Z,983.45
2023-10-19T05:41:59.817Z,983.42
2023-10-19T05:42:59.780Z,983.45
2023-10-19T05:43:59.819Z,983.50
2023-10-19T05:44:59.771Z,983.42
2023-10-19T05:45:59.810Z,983.45
2023-10-19T05:47:00.504Z,983.43
2023-10-19T05:47:59.732Z,983.45
2023-10-19T05:48:59.719Z,983.49
2023-10-19T05:49:59.755Z,983.47
2023-10-19T05:50:59.693Z,983.49
2023-10-19T05:51:59.673Z,983.50
2023-10-19T05:52:59.686Z,983.48
2023-10-19T05:53:59.640Z,983.51
2023-10-19T05:54:59.656Z,983.54
2023-10-19T05:55:59.670Z,983.57
2023-10-19T05:56:59.786Z,983.60
2023-10-19T05:57:59.583Z,983.64
2023-10-19T05:58:59.632Z,983.63
2023-10-19T05:59:59.579Z,983.66
2023-10-19T06:00:59.553Z,983.65
2023-10-19T06:01:59.586Z,983.64
2023-10-19T06:02:59.579Z,983.59
2023-10-19T06:03:59.551Z,983.63
2023-10-19T06:04:59.533Z,983.56
2023-10-19T06:05:59.511Z,983.54
2023-10-19T06:06:59.470Z,983.59
2023-10-19T06:07:59.467Z,983.56
2023-10-19T06:08:59.489Z,983.53
2023-10-19T06:09:59.432Z,983.59
2023-10-19T06:10:59.460Z,983.60
2023-10-19T06:11:59.384Z,983.61
2023-10-19T06:12:59.400Z,983.59
2023-10-19T06:13:59.379Z,983.61
2023-10-19T06:14:59.366Z,983.64
2023-10-19T06:15:59.406Z,983.58
2023-10-19T06:16:59.467Z,983.61
2023-10-19T06:17:59.466Z,983.55
2023-10-19T06:18:59.414Z,983.53
2023-10-19T06:19:59.298Z,983.56
2023-10-19T06:20:59.283Z,983.58
2023-10-19T06:21:59.257Z,983.57
2023-10-19T06:22:59.293Z,983.59
2023-10-19T06:23:59.239Z,983.62
2023-10-19T06:24:59.234Z,983.67
2023-10-19T06:25:59.271Z,983.69
2023-10-19T06:26:59.201Z,983.71
2023-10-19T06:27:59.194Z,983.70
2023-10-19T06:28:59.233Z,983.69
2023-10-19T06:29:59.146Z,983.65
2023-10-19T06:30:59.137Z,983.64
2023-10-19T06:31:59.228Z,983.71
2023-10-19T06:32:59.189Z,983.68
2023-10-19T06:33:59.212Z,983.76
2023-10-19T06:34:59.135Z,983.74
2023-10-19T06:35:59.069Z,983.75
2023-10-19T06:36:59.099Z,983.72
2023-10-19T06:37:59.101Z,983.76
2023-10-19T06:38:59.035Z,983.73
2023-10-19T06:39:59.023Z,983.76
2023-10-19T06:40:59.078Z,983.72
2023-10-19T06:41:59.012Z,983.76
2023-10-19T06:42:59.002Z,983.76
2023-10-19T06:43:59.004Z,983.73
2023-10-19T06:44:58.958Z,983.77
2023-10-19T06:45:58.984Z,983.76
2023-10-19T06:46:58.969Z,983.81
2023-10-19T06:47:58.937Z,983.78
2023-10-19T06:48:58.908Z,983.80
2023-10-19T06:49:58.936Z,983.74
2023-10-19T06:50:58.898Z,983.78
2023-10-19T06:51:58.842Z,983.76
2023-10-19T06:52:58.884Z,983.74
2023-10-19T06:53:58.878Z,983.75
2023-10-19T06:54:58.846Z,983.72
2023-10-19T06:55:58.837Z,983.74
2023-10-19T06:56:58.793Z,983.72
2023-10-19T06:57:58.769Z,983.71
2023-10-19T06:58:58.789Z,983.71
2023-10-19T06:59:58.766Z,983.66
2023-10-19T07:00:58.742Z,983.69
2023-10-19T07:01:58.758Z,983.70
2023-10-19T07:02:58.733Z,983.62
2023-10-19T07:03:58.753Z,983.64
2023-10-19T07:04:58.726Z,983.68
2023-10-19T07:05:58.683Z,983.65
2023-10-19T07:06:58.663Z,983.61
2023-10-19T07:07:58.695Z,983.65
2023-10-19T07:08:58.653Z,983.64
2023-10-19T07:09:58.633Z,983.64
2023-10-19T07:10:58.641Z,983.64
2023-10-19T07:11:58.585Z,983.68
2023-10-19T07:12:58.594Z,983.71
2023-10-19T07:13:58.643Z,983.66
2023-10-19T07:14:58.555Z,983.70
2023-10-19T07:15:58.571Z,983.66
2023-10-19T07:16:58.637Z,983.69
2023-10-19T07:17:58.535Z,983.66
2023-10-19T07:18:58.513Z,983.69
2023-10-19T07:19:58.510Z,983.69
2023-10-19T07:20:58.462Z,983.68
2023-10-19T07:21:58.481Z,983.73
2023-10-19T07:22:58.537Z,983.74
2023-10-19T07:23:58.447Z,983.70
2023-10-19T07:24:58.442Z,983.66
2023-10-19T07:25:58.425Z,983.70
2023-10-19T07:26:58.432Z,983.68
2023-10-19T07:27:58.391Z,983.64
2023-10-19T07:28:58.440Z,983.63
2023-10-19T07:29:58.375Z,983.60
2023-10-19T07:30:58.351Z,983.58
2023-10-19T07:31:58.495Z,983.53
2023-10-19T07:32:58.366Z,983.49
2023-10-19T07:33:58.320Z,983.46
2023-10-19T07:34:58.301Z,983.37
2023-10-19T07:35:58.274Z,983.46
2023-10-19T07:36:58.272Z,983.49
2023-10-19T07:37:58.404Z,983.49
2023-10-19T07:38:58.247Z,983.46
2023-10-19T07:39:58.226Z,983.41
2023-10-19T07:40:58.925Z,983.39
2023-10-19T07:41:58.209Z,983.46
2023-10-19T07:42:58.189Z,983.51
2023-10-19T07:43:58.214Z,983.52
2023-10-19T07:44:58.172Z,983.53
2023-10-19T07:45:58.174Z,983.43
2023-10-19T07:46:58.178Z,983.42
2023-10-19T07:47:58.139Z,983.35
2023-10-19T07:48:58.132Z,983.39
2023-10-19T07:49:58.133Z,983.44
2023-10-19T07:50:58.102Z,983.46
2023-10-19T07:51:59.126Z,983.43
2023-10-19T07:52:58.086Z,983.49
2023-10-19T07:53:58.089Z,983.43
2023-10-19T07:54:58.024Z,983.44
2023-10-19T07:55:58.068Z,983.44
2023-10-19T07:56:57.998Z,983.46
2023-10-19T07:57:57.977Z,983.41
2023-10-19T07:58:58.100Z,983.39
2023-10-19T07:59:57.967Z,983.37
2023-10-19T08:00:58.214Z,983.35
2023-10-19T08:01:57.979Z,983.37
2023-10-19T08:02:57.966Z,983.36
2023-10-19T08:03:57.981Z,983.34
2023-10-19T08:04:57.920Z,983.34
2023-10-19T08:05:57.865Z,983.29
2023-10-19T08:06:57.853Z,983.30
2023-10-19T08:07:57.913Z,983.22
2023-10-19T08:08:57.846Z,983.32
2023-10-19T08:09:57.819Z,983.36
2023-10-19T08:10:57.932Z,983.37
2023-10-19T08:11:58.474Z,983.41
2023-10-19T08:12:57.787Z,983.34
2023-10-19T08:13:57.789Z,983.32
2023-10-19T08:14:57.745Z,983.34
2023-10-19T08:15:57.762Z,983.28
2023-10-19T08:16:57.775Z,983.36
2023-10-19T08:17:57.750Z,983.34
2023-10-19T08:18:57.796Z,983.33
2023-10-19T08:19:57.718Z,983.30
2023-10-19T08:20:57.759Z,983.26
2023-10-19T08:21:57.622Z,983.28
2023-10-19T08:22:57.697Z,983.23
2023-10-19T08:23:57.627Z,983.17
2023-10-19T08:24:57.606Z,983.18
2023-10-19T08:25:57.947Z,983.21
2023-10-19T08:26:57.591Z,983.23
2023-10-19T08:27:57.584Z,983.19
2023-10-19T08:28:57.594Z,983.21
2023-10-19T08:29:57.533Z,983.18
2023-10-19T08:30:57.976Z,983.13
2023-10-19T08:31:57.592Z,983.14
2023-10-19T08:32:57.547Z,983.13
2023-10-19T08:33:57.538Z,983.12
2023-10-19T08:34:57.569Z,983.14
2023-10-19T08:35:57.523Z,983.08
2023-10-19T08:36:57.457Z,983.10
2023-10-19T08:37:57.471Z,983.02
2023-10-19T08:38:57.434Z,983.04
2023-10-19T08:39:57.395Z,983.07
2023-10-19T08:40:58.116Z,983.05
2023-10-19T08:41:57.385Z,983.13
2023-10-19T08:42:57.364Z,983.14
2023-10-19T08:43:57.421Z,983.16
2023-10-19T08:44:57.340Z,983.20
2023-10-19T08:45:57.393Z,983.22
2023-10-19T08:46:58.754Z,983.18
2023-10-19T08:47:57.432Z,983.19
2023-10-19T08:48:57.289Z,983.17
2023-10-19T08:49:57.288Z,983.21
2023-10-19T08:50:57.326Z,983.16
2023-10-19T08:51:57.215Z,983.18
2023-10-19T08:52:57.313Z,983.22
2023-10-19T08:53:57.203Z,983.22
2023-10-19T08:54:57.200Z,983.19
2023-10-19T08:55:57.218Z,983.14
2023-10-19T08:56:57.155Z,983.06
2023-10-19T08:57:57.146Z,983.04
2023-10-19T08:58:57.233Z,983.09
2023-10-19T08:59:57.117Z,983.09
2023-10-19T09:00:57.265Z,983.03
2023-10-19T09:01:57.093Z,983.02
2023-10-19T09:02:57.112Z,983.00
2023-10-19T09:03:57.117Z,982.96
2023-10-19T09:04:57.197Z,982.92
2023-10-19T09:05:57.044Z,982.92
2023-10-19T09:06:57.053Z,982.95
2023-10-19T09:07:57.065Z,982.93
2023-10-19T09:08:56.999Z,982.86
2023-10-19T09:09:57.016Z,982.88
2023-10-19T09:10:57.076Z,982.86
2023-10-19T09:11:56.968Z,982.87
2023-10-19T09:12:56.958Z,982.88
2023-10-19T09:13:57.008Z,982.85
2023-10-19T09:14:56.934Z,982.91
2023-10-19T09:15:57.873Z,982.89
2023-10-19T09:16:56.992Z,982.91
2023-10-19T09:17:56.925Z,982.85
2023-10-19T09:18:56.883Z,982.87
2023-10-19T09:19:56.920Z,982.82
2023-10-19T09:20:56.873Z,982.83
2023-10-19T09:21:56.842Z,982.81
2023-10-19T09:22:56.883Z,982.79
2023-10-19T09:23:56.828Z,982.75
2023-10-19T09:24:56.826Z,982.77
2023-10-19T09:25:56.866Z,982.70
2023-10-19T09:26:56.761Z,982.70
2023-10-19T09:27:56.809Z,982.77
2023-10-19T09:28:56.815Z,982.74
2023-10-19T09:29:56.723Z,982.70
2023-10-19T09:30:56.719Z,982.67
2023-10-19T09:31:56.731Z,982.67
2023-10-19T09:32:56.795Z,982.74
2023-10-19T09:33:56.689Z,982.81
2023-10-19T09:34:56.683Z,982.79
2023-10-19T09:35:56.636Z,982.79
2023-10-19T09:36:56.628Z,982.75
2023-10-19T09:37:56.649Z,982.82
2023-10-19T09:38:56.599Z,982.76
2023-10-19T09:39:56.596Z,982.72
2023-10-19T09:40:56.689Z,982.74
2023-10-19T09:41:56.574Z,982.68
2023-10-19T09:42:56.719Z,982.66
2023-10-19T09:43:56.610Z,982.63
2023-10-19T09:44:56.578Z,982.62
2023-10-19T09:45:56.516Z,982.57
2023-10-19T09:46:56.572Z,982.56
2023-10-19T09:47:56.574Z,982.50
2023-10-19T09:48:56.472Z,982.47
2023-10-19T09:49:56.483Z,982.49
2023-10-19T09:50:56.453Z,982.46
2023-10-19T09:52:57.426Z,982.43
2023-10-19T09:53:56.399Z,982.42
2023-10-19T09:54:56.378Z,982.39
2023-10-19T09:55:56.464Z,982.42
2023-10-19T09:56:56.367Z,982.42
2023-10-19T09:57:56.369Z,982.35
2023-10-19T09:58:56.380Z,982.34
2023-10-19T09:59:56.337Z,982.30
2023-10-19T10:00:56.382Z,982.28
2023-10-19T10:01:56.388Z,982.22
2023-10-19T10:02:56.322Z,982.29
2023-10-19T10:03:56.289Z,982.32
2023-10-19T10:04:56.298Z,982.39
2023-10-19T10:05:56.488Z,982.45
2023-10-19T10:06:56.270Z,982.40
2023-10-19T10:07:56.260Z,982.45
2023-10-19T10:08:56.215Z,982.45
2023-10-19T10:09:56.225Z,982.45
2023-10-19T10:10:56.263Z,982.46
2023-10-19T10:11:56.188Z,982.45
2023-10-19T10:12:56.163Z,982.44
2023-10-19T10:13:56.248Z,982.47
2023-10-19T10:14:56.235Z,982.51
2023-10-19T10:15:56.137Z,982.50
2023-10-19T10:16:56.163Z,982.52
2023-10-19T10:17:56.168Z,982.51
2023-10-19T10:18:56.085Z,982.42
2023-10-19T10:19:56.210Z,982.44
2023-10-19T10:20:56.119Z,982.40
2023-10-19T10:21:56.080Z,982.41
2023-10-19T10:22:56.057Z,982.43
2023-10-19T10:23:56.090Z,982.49
2023-10-19T10:24:56.028Z,982.54
2023-10-19T10:25:56.085Z,982.47
2023-10-19T10:26:56.019Z,982.47
2023-10-19T10:27:55.991Z,982.46
2023-10-19T10:28:56.008Z,982.41
2023-10-19T10:29:55.967Z,982.39
2023-10-19T10:30:56.008Z,982.35
2023-10-19T10:31:55.975Z,982.35
2023-10-19T10:32:55.956Z,982.33
2023-10-19T10:33:56.148Z,982.35
2023-10-19T10:34:55.938Z,982.31
2023-10-19T10:35:55.870Z,982.29
2023-10-19T10:36:55.860Z,982.32
2023-10-19T10:37:55.900Z,982.26
2023-10-19T10:38:55.833Z,982.27
2023-10-19T10:39:55.796Z,982.24
2023-10-19T10:40:55.843Z,982.22
2023-10-19T10:41:55.776Z,982.14
2023-10-19T10:42:55.774Z,982.19
2023-10-19T10:43:55.776Z,982.08
2023-10-19T10:44:55.726Z,982.04
2023-10-19T10:45:55.728Z,982.02
2023-10-19T10:46:55.786Z,982.01
2023-10-19T10:47:55.750Z,982.01
2023-10-19T10:48:55.696Z,981.94
2023-10-19T10:49:55.772Z,981.96
2023-10-19T10:50:56.912Z,981.97
2023-10-19T10:51:55.659Z,981.95
2023-10-19T10:52:55.676Z,981.91
2023-10-19T10:53:55.628Z,981.91
2023-10-19T10:54:55.604Z,981.83
2023-10-19T10:55:55.765Z,981.82
2023-10-19T10:56:55.572Z,981.83
2023-10-19T10:57:55.576Z,981.81
2023-10-19T10:58:55.626Z,981.79
2023-10-19T10:59:55.564Z,981.77
2023-10-19T11:00:55.559Z,981.77
2023-10-19T11:01:55.625Z,981.79
2023-10-19T11:02:55.523Z,981.83
2023-10-19T11:03:56.988Z,981.84
2023-10-19T11:04:55.541Z,981.89
2023-10-19T11:05:55.638Z,981.77
2023-10-19T11:06:55.459Z,981.77
2023-10-19T11:07:55.454Z,981.72
2023-10-19T11:08:55.447Z,981.75
2023-10-19T11:09:57.431Z,981.69
2023-10-19T11:10:55.449Z,981.66
2023-10-19T11:11:55.391Z,981.68
2023-10-19T11:12:55.362Z,981.65
2023-10-19T11:13:55.459Z,981.64
2023-10-19T11:14:55.351Z,981.64
2023-10-19T11:15:58.679Z,981.58
2023-10-19T11:16:55.421Z,981.57
2023-10-19T11:17:55.363Z,981.55
2023-10-19T11:18:55.295Z,981.56
2023-10-19T11:19:55.338Z,981.59
2023-10-19T11:20:55.285Z,981.64
2023-10-19T11:21:58.376Z,981.60
2023-10-19T11:22:56.291Z,981.56
2023-10-19T11:23:55.252Z,981.56
2023-10-19T11:24:55.211Z,981.57
2023-10-19T11:25:55.260Z,981.61
2023-10-19T11:26:55.181Z,981.62
2023-10-19T11:27:57.014Z,981.60
2023-10-19T11:28:55.229Z,981.60
2023-10-19T11:29:55.160Z,981.57
2023-10-19T11:30:55.140Z,981.54
2023-10-19T11:31:55.146Z,981.55
2023-10-19T11:32:55.194Z,981.56
2023-10-19T11:33:55.109Z,981.63
2023-10-19T11:34:55.156Z,981.63
2023-10-19T11:35:55.147Z,981.65
2023-10-19T11:36:55.071Z,981.57
2023-10-19T11:37:55.069Z,981.56
2023-10-19T11:38:55.070Z,981.53
2023-10-19T11:39:55.015Z,981.59
2023-10-19T11:40:55.034Z,981.55
2023-10-19T11:41:54.983Z,981.48
2023-10-19T11:42:54.968Z,981.50
2023-10-19T11:43:57.210Z,981.51
2023-10-19T11:44:54.928Z,981.54
2023-10-19T11:45:54.955Z,981.54
2023-10-19T11:46:55.015Z,981.52
2023-10-19T11:47:54.927Z,981.52
2023-10-19T11:48:54.887Z,981.53
2023-10-19T11:49:54.910Z,981.56
2023-10-19T11:50:54.866Z,981.54
2023-10-19T11:51:54.841Z,981.57
2023-10-19T11:52:54.982Z,981.53
2023-10-19T11:53:54.815Z,981.52
2023-10-19T11:54:54.811Z,981.55
2023-10-19T11:55:54.824Z,981.53
2023-10-19T11:56:54.783Z,981.55
2023-10-19T11:57:54.768Z,981.52
2023-10-19T11:58:54.774Z,981.50
2023-10-19T11:59:57.306Z,981.52
2023-10-19T12:00:54.722Z,981.50
2023-10-19T12:01:54.814Z,981.50
2023-10-19T12:02:54.876Z,981.45
2023-10-19T12:03:54.691Z,981.44
2023-10-19T12:04:54.686Z,981.48
2023-10-19T12:05:57.241Z,981.46
2023-10-19T12:06:54.660Z,981.47
2023-10-19T12:07:54.689Z,981.42
2023-10-19T12:08:54.615Z,981.47
2023-10-19T12:09:54.612Z,981.43
2023-10-19T12:10:54.606Z,981.40
2023-10-19T12:11:54.637Z,981.42
2023-10-19T12:13:02.028Z,981.43
2023-10-19T12:13:55.640Z,981.48
2023-10-19T12:14:54.562Z,981.41
2023-10-19T12:15:54.560Z,981.41
2023-10-19T12:17:54.674Z,981.38
2023-10-19T12:18:54.498Z,981.41
2023-10-19T12:19:54.509Z,981.34
2023-10-19T12:20:54.474Z,981.36
2023-10-19T12:21:54.433Z,981.30
2023-10-19T12:22:54.506Z,981.23
2023-10-19T12:23:54.427Z,981.22
2023-10-19T12:24:54.408Z,981.26
2023-10-19T12:25:57.697Z,981.24
2023-10-19T12:26:54.377Z,981.25
2023-10-19T12:27:54.373Z,981.21
2023-10-19T12:28:54.347Z,981.24
2023-10-19T12:29:54.349Z,981.20